^^
Saratoga-Weather Station Historical Data
Daily Summary for August 07, 2022 Units:  English    Metric   Both
Daily Weekly Monthly Yearly Custom
  High: Low: Average:
Temperature: 83.1 °F 57.2 °F 70.3 °F
Dew Point: 51.8 °F 45 °F 47.5 °F
Humidity: 65% 30% 46%
Wind Speed: 11mph 0mph 2mph
Wind Gust: 11mph - -
Wind- - SSW
Pressure: 30.2 in 30.1 in -
Precipitation: 0 in    
Historical Graphs
 
 
Tabular Data for August 07, 2022
Time Temperature Dew Point Pressure Wind Wind Speed Wind Gust Humidity Rainfall Rate (Hourly) solar
00:02 63.7 °F 45.7 °F 30.2 in WSW 0.9 mph 3 mph 52% 0 in 0 W/m2
00:07 63.7 °F 45.7 °F 30.2 in NW 2.9 mph 9 mph 52% 0 in 0 W/m2
00:12 63.7 °F 46.2 °F 30.2 in NNW 2 mph 4 mph 53% 0 in 0 W/m2
00:17 63.3 °F 45.9 °F 30.2 in West 2.9 mph 6 mph 53% 0 in 0 W/m2
00:22 63.3 °F 45.9 °F 30.2 in NW 0.9 mph 4 mph 53% 0 in 0 W/m2
00:27 63.1 °F 45.7 °F 30.2 in WSW 2.9 mph 4 mph 53% 0 in 0 W/m2
00:32 63.1 °F 45.7 °F 30.2 in WNW 0.9 mph 4 mph 53% 0 in 0 W/m2
00:37 63 °F 45.5 °F 30.2 in West 2 mph 4 mph 53% 0 in 0 W/m2
00:42 63 °F 45.5 °F 30.2 in WSW 2 mph 4 mph 53% 0 in 0 W/m2
00:47 62.8 °F 45.3 °F 30.2 in West 0.9 mph 5 mph 53% 0 in 0 W/m2
00:53 62.8 °F 45.3 °F 30.2 in West 2.9 mph 6 mph 53% 0 in 0 W/m2
00:58 62.8 °F 45.9 °F 30.2 in NNW 2.9 mph 4 mph 54% 0 in 0 W/m2
01:03 62.6 °F 45.7 °F 30.2 in Calm   2 mph 54% 0 in 0 W/m2
01:08 62.6 °F 45.7 °F 30.2 in WNW 2 mph 3 mph 54% 0 in 0 W/m2
01:13 62.4 °F 45.5 °F 30.2 in West 2 mph 4 mph 54% 0 in 0 W/m2
01:18 62.2 °F 45.3 °F 30.2 in West 2.9 mph 4 mph 54% 0 in 0 W/m2
01:23 62.2 °F 45.3 °F 30.2 in West 2.9 mph 3 mph 54% 0 in 0 W/m2
01:28 62.2 °F 45.3 °F 30.2 in West 6 mph 6 mph 54% 0 in 0 W/m2
01:33 62.2 °F 45.3 °F 30.2 in WNW 2.9 mph 4 mph 54% 0 in 0 W/m2
01:38 62.1 °F 45.1 °F 30.2 in WSW 2 mph 4 mph 54% 0 in 0 W/m2
01:43 62.1 °F 45.7 °F 30.2 in Calm   2 mph 55% 0 in 0 W/m2
01:48 61.9 °F 45.5 °F 30.2 in WNW 2 mph 3 mph 55% 0 in 0 W/m2
01:53 61.9 °F 45.5 °F 30.2 in West 2 mph 4 mph 55% 0 in 0 W/m2
01:58 61.7 °F 45.3 °F 30.2 in NW 0.9 mph 4 mph 55% 0 in 0 W/m2
02:03 61.7 °F 45.3 °F 30.2 in West 2 mph 4 mph 55% 0 in 0 W/m2
02:08 61.7 °F 45.3 °F 30.2 in WNW 2.9 mph 5 mph 55% 0 in 0 W/m2
02:13 61.5 °F 45.1 °F 30.2 in NW 2.9 mph 6 mph 55% 0 in 0 W/m2
02:18 61.5 °F 45.1 °F 30.2 in WNW 2 mph 4 mph 55% 0 in 0 W/m2
02:23 61.3 °F 45 °F 30.2 in WNW 2 mph 4 mph 55% 0 in 0 W/m2
02:28 61.3 °F 45 °F 30.2 in West 0.9 mph 3 mph 55% 0 in 0 W/m2
02:33 61.3 °F 45 °F 30.2 in West 0.9 mph 3 mph 55% 0 in 0 W/m2
02:38 61.2 °F 45.3 °F 30.2 in WNW 0.9 mph 2 mph 56% 0 in 0 W/m2
02:43 61.2 °F 45.3 °F 30.2 in Calm   3 mph 56% 0 in 0 W/m2
02:48 61 °F 45.1 °F 30.2 in WNW 6.9 mph 7 mph 56% 0 in 0 W/m2
02:53 61 °F 45.1 °F 30.2 in West 0.9 mph 3 mph 56% 0 in 0 W/m2
02:58 61 °F 45.1 °F 30.2 in WNW 0.9 mph 6 mph 56% 0 in 0 W/m2
03:03 60.8 °F 45.5 °F 30.2 in WSW 2 mph 2 mph 57% 0 in 0 W/m2
03:08 60.6 °F 45.3 °F 30.2 in Calm   1 mph 57% 0 in 0 W/m2
03:13 60.4 °F 45.7 °F 30.2 in South 0.9 mph 2 mph 58% 0 in 0 W/m2
03:18 60.3 °F 45.5 °F 30.2 in Calm   2 mph 58% 0 in 0 W/m2
03:23 59.9 °F 45.5 °F 30.2 in South 0.9 mph 2 mph 59% 0 in 0 W/m2
03:28 59.7 °F 45.3 °F 30.2 in SSW 0.9 mph 3 mph 59% 0 in 0 W/m2
03:33 59.5 °F 45.7 °F 30.2 in Calm   1 mph 60% 0 in 0 W/m2
03:38 59.4 °F 45 °F 30.2 in SW 0.9 mph 2 mph 59% 0 in 0 W/m2
03:43 59.4 °F 45.5 °F 30.2 in WSW 0.9 mph 3 mph 60% 0 in 0 W/m2
03:48 59.4 °F 45 °F 30.2 in WSW 2 mph 3 mph 59% 0 in 0 W/m2
03:53 59.4 °F 45.5 °F 30.2 in SW 2 mph 2 mph 60% 0 in 0 W/m2
03:58 59.4 °F 45.5 °F 30.2 in Calm   2 mph 60% 0 in 0 W/m2
04:03 59.2 °F 45.7 °F 30.2 in WNW 0.9 mph 2 mph 61% 0 in 0 W/m2
04:08 58.8 °F 45.3 °F 30.2 in Calm   3 mph 61% 0 in 0 W/m2
04:13 58.6 °F 45.7 °F 30.2 in SW 0.9 mph 2 mph 62% 0 in 0 W/m2
04:18 58.5 °F 45.5 °F 30.2 in Calm   3 mph 62% 0 in 0 W/m2
04:23 58.5 °F 45.1 °F 30.2 in NW 2.9 mph 3 mph 61% 0 in 0 W/m2
04:28 58.6 °F 45.7 °F 30.2 in WNW 0.9 mph 2 mph 62% 0 in 0 W/m2
04:33 58.6 °F 45.7 °F 30.2 in NW 0.9 mph 4 mph 62% 0 in 0 W/m2
04:38 58.5 °F 45.1 °F 30.2 in Calm   2 mph 61% 0 in 0 W/m2
04:43 58.5 °F 45.1 °F 30.2 in South 0.9 mph 3 mph 61% 0 in 0 W/m2
04:48 58.6 °F 45.3 °F 30.2 in WSW 0.9 mph 3 mph 61% 0 in 0 W/m2
04:53 58.6 °F 45.3 °F 30.2 in Calm   2 mph 61% 0 in 0 W/m2
04:58 58.6 °F 45.3 °F 30.2 in Calm   3 mph 61% 0 in 0 W/m2
05:03 58.6 °F 45.3 °F 30.2 in WSW 0.9 mph 2 mph 61% 0 in 0 W/m2
05:08 58.6 °F 45.3 °F 30.2 in West 2 mph 6 mph 61% 0 in 0 W/m2
05:13 58.6 °F 45.3 °F 30.2 in WNW 2 mph 4 mph 61% 0 in 0 W/m2
05:18 58.8 °F 45.3 °F 30.2 in West 0.9 mph 4 mph 61% 0 in 0 W/m2
05:23 58.8 °F 45.3 °F 30.2 in West 0.9 mph 3 mph 61% 0 in 0 W/m2
05:28 58.6 °F 45.3 °F 30.2 in WSW 2.9 mph 4 mph 61% 0 in 0 W/m2
05:33 58.6 °F 45.3 °F 30.2 in West 2 mph 3 mph 61% 0 in 0 W/m2
05:38 58.5 °F 45.1 °F 30.2 in West 2 mph 4 mph 61% 0 in 0 W/m2
05:43 58.5 °F 45.1 °F 30.2 in West 2 mph 3 mph 61% 0 in 0 W/m2
05:48 58.3 °F 45.3 °F 30.2 in WSW 2 mph 4 mph 62% 0 in 0 W/m2
05:53 58.3 °F 45.3 °F 30.2 in NNW 2 mph 4 mph 62% 0 in 0 W/m2
05:58 58.3 °F 45.3 °F 30.2 in Calm   1 mph 62% 0 in 0 W/m2
06:03 57.9 °F 45.3 °F 30.2 in WNW 0.9 mph 4 mph 63% 0 in 0 W/m2
06:08 57.7 °F 45.3 °F 30.2 in NW 0.9 mph 3 mph 63% 0 in 0 W/m2
06:13 57.6 °F 45.1 °F 30.2 in ENE 0.9 mph 2 mph 63% 0 in 0 W/m2
06:18 57.7 °F 45.3 °F 30.2 in SW 0.9 mph 1 mph 63% 0 in 5 W/m2
06:23 57.7 °F 45.3 °F 30.2 in Calm   2 mph 63% 0 in 7 W/m2
06:28 57.6 °F 45.1 °F 30.2 in Calm   2 mph 63% 0 in 7 W/m2
06:33 57.6 °F 45.5 °F 30.2 in WSW 0.9 mph 3 mph 64% 0 in 9 W/m2
06:38 57.4 °F 45.7 °F 30.2 in WSW 0.9 mph 2 mph 65% 0 in 12 W/m2
06:43 57.2 °F 45.5 °F 30.2 in WSW 0.9 mph 3 mph 65% 0 in 14 W/m2
06:48 57.4 °F 45.3 °F 30.2 in West 2.9 mph 3 mph 64% 0 in 14 W/m2
06:53 57.7 °F 45.3 °F 30.2 in WNW 2.9 mph 5 mph 63% 0 in 18 W/m2
06:58 57.9 °F 45.3 °F 30.2 in WSW 0.9 mph 3 mph 63% 0 in 18 W/m2
07:03 57.9 °F 45 °F 30.2 in WSW 0.9 mph 2 mph 62% 0 in 19 W/m2
07:08 58.1 °F 45.1 °F 30.2 in WNW 2 mph 4 mph 62% 0 in 21 W/m2
07:13 58.3 °F 45.3 °F 30.2 in Calm   4 mph 62% 0 in 21 W/m2
07:18 58.3 °F 45.3 °F 30.2 in NNW 0.9 mph 2 mph 62% 0 in 23 W/m2
07:23 58.5 °F 45.5 °F 30.2 in NW 0.9 mph 2 mph 62% 0 in 25 W/m2
07:28 58.5 °F 45.5 °F 30.2 in Calm   2 mph 62% 0 in 74 W/m2
07:33 58.6 °F 45.7 °F 30.2 in NW 0.9 mph 2 mph 62% 0 in 97 W/m2
07:38 59 °F 45.5 °F 30.2 in NW 2 mph 7 mph 61% 0 in 111 W/m2
07:43 59.5 °F 45.7 °F 30.2 in West 2 mph 3 mph 60% 0 in 125 W/m2
07:48 59.9 °F 46 °F 30.2 in WNW 2 mph 7 mph 60% 0 in 139 W/m2
07:53 60.3 °F 45.9 °F 30.2 in NNW 2.9 mph 4 mph 59% 0 in 155 W/m2
07:58 60.6 °F 46.2 °F 30.2 in ENE 2.9 mph 6 mph 59% 0 in 174 W/m2
08:03 60.8 °F 45.9 °F 30.2 in NNE 2 mph 3 mph 58% 0 in 188 W/m2
08:08 61.2 °F 46.2 °F 30.2 in East 0.9 mph 6 mph 58% 0 in 202 W/m2
08:13 61.5 °F 46.2 °F 30.2 in SE 2 mph 3 mph 57% 0 in 220 W/m2
08:18 61.9 °F 46 °F 30.2 in North 0.9 mph 7 mph 56% 0 in 200 W/m2
08:23 62.1 °F 46.6 °F 30.2 in NE 0.9 mph 4 mph 57% 0 in 100 W/m2
08:28 62.2 °F 46.4 °F 30.2 in ENE 0.9 mph 8 mph 56% 0 in 42 W/m2
08:33 62.4 °F 46.6 °F 30.2 in ENE 0.9 mph 3 mph 56% 0 in 39 W/m2
08:38 62.8 °F 46.9 °F 30.2 in WNW 0.9 mph 8 mph 56% 0 in 39 W/m2
08:43 63 °F 46.6 °F 30.2 in West 2 mph 5 mph 55% 0 in 39 W/m2
08:48 62.8 °F 46.9 °F 30.2 in North 0.9 mph 8 mph 56% 0 in 39 W/m2
08:53 63.1 °F 46.8 °F 30.2 in NNW 2 mph 4 mph 55% 0 in 39 W/m2
08:58 63.7 °F 47.3 °F 30.2 in North 0.9 mph 8 mph 55% 0 in 39 W/m2
09:03 64 °F 47.5 °F 30.2 in NNW 2 mph 4 mph 55% 0 in 39 W/m2
09:08 64.6 °F 48 °F 30.2 in Calm   2 mph 55% 0 in 39 W/m2
09:13 64.9 °F 47.5 °F 30.2 in West 2 mph 3 mph 53% 0 in 39 W/m2
09:18 65.3 °F 47.3 °F 30.2 in ESE 0.9 mph 4 mph 52% 0 in 39 W/m2
09:23 65.5 °F 47.5 °F 30.2 in East 4 mph 6 mph 52% 0 in 39 W/m2
09:28 65.7 °F 47.5 °F 30.2 in East 2 mph 9 mph 52% 0 in 39 W/m2
09:33 65.8 °F 47.7 °F 30.2 in WNW 2.9 mph 3 mph 52% 0 in 40 W/m2
09:38 66 °F 47.8 °F 30.2 in ENE 2 mph 5 mph 52% 0 in 39 W/m2
09:43 66.4 °F 47.7 °F 30.2 in NNW 0.9 mph 7 mph 51% 0 in 40 W/m2
09:48 66.7 °F 47.5 °F 30.2 in WNW 2 mph 3 mph 50% 0 in 40 W/m2
09:53 66.9 °F 48.2 °F 30.2 in SE 2.9 mph 6 mph 51% 0 in 40 W/m2
09:58 67.3 °F 48 °F 30.2 in ENE 0.9 mph 6 mph 50% 0 in 42 W/m2
10:03 67.6 °F 48.4 °F 30.2 in NNW 2 mph 4 mph 50% 0 in 44 W/m2
10:08 68 °F 48.2 °F 30.2 in ENE 2 mph 9 mph 49% 0 in 46 W/m2
10:13 68.4 °F 48.9 °F 30.2 in Calm   6 mph 50% 0 in 251 W/m2
10:18 68.5 °F 48 °F 30.2 in East 4 mph 9 mph 48% 0 in 554 W/m2
10:23 68.7 °F 48.2 °F 30.2 in ENE 6 mph 7 mph 48% 0 in 566 W/m2
10:28 69.1 °F 48.6 °F 30.2 in WNW 0.9 mph 2 mph 48% 0 in 578 W/m2
10:33 69.3 °F 48.7 °F 30.2 in NE 2 mph 7 mph 48% 0 in 592 W/m2
10:38 69.8 °F 48.7 °F 30.2 in NW 2 mph 5 mph 47% 0 in 606 W/m2
10:43 70.2 °F 48.4 °F 30.2 in WNW 0.9 mph 4 mph 46% 0 in 615 W/m2
10:48 70.2 °F 48.9 °F 30.2 in ENE 0.9 mph 7 mph 47% 0 in 629 W/m2
10:53 70.7 °F 48.9 °F 30.2 in NNW 4 mph 4 mph 46% 0 in 640 W/m2
10:58 70.9 °F 50.2 °F 30.2 in SE 8.1 mph 8 mph 48% 0 in 647 W/m2
11:03 71.1 °F 49.8 °F 30.2 in ENE 2.9 mph 5 mph 47% 0 in 663 W/m2
11:08 71.6 °F 49.6 °F 30.2 in East 0.9 mph 8 mph 46% 0 in 671 W/m2
11:13 72 °F 49.5 °F 30.2 in East 2.9 mph 9 mph 45% 0 in 682 W/m2
11:18 72.1 °F 49.6 °F 30.2 in NNW 0.9 mph 4 mph 45% 0 in 687 W/m2
11:23 72.1 °F 50.7 °F 30.2 in NE 2 mph 9 mph 47% 0 in 698 W/m2
11:28 72.9 °F 50.9 °F 30.2 in North 4.9 mph 9 mph 46% 0 in 712 W/m2
11:33 72.9 °F 49.6 °F 30.2 in SE 2 mph 5 mph 44% 0 in 722 W/m2
11:38 73.4 °F 50.2 °F 30.2 in North 4 mph 9 mph 44% 0 in 731 W/m2
11:44 73.8 °F 50.5 °F 30.2 in NNW 2 mph 4 mph 44% 0 in 742 W/m2
11:49 74.1 °F 50.9 °F 30.2 in Calm   6 mph 44% 0 in 752 W/m2
11:54 74.8 °F 50.9 °F 30.2 in East 4 mph 6 mph 43% 0 in 759 W/m2
11:59 75.2 °F 50.5 °F 30.2 in ENE 4 mph 8 mph 42% 0 in 765 W/m2
12:04 74.8 °F 50.2 °F 30.2 in NNE 2 mph 5 mph 42% 0 in 768 W/m2
12:09 75 °F 50.4 °F 30.2 in North 2.9 mph 4 mph 42% 0 in 777 W/m2
12:14 75.4 °F 50.7 °F 30.2 in NE 4 mph 6 mph 42% 0 in 788 W/m2
12:19 75.9 °F 51.8 °F 30.2 in West 2.9 mph 5 mph 43% 0 in 793 W/m2
12:24 76.3 °F 51.4 °F 30.1 in ENE 4 mph 5 mph 42% 0 in 805 W/m2
12:29 76.5 °F 50.4 °F 30.1 in ENE 2.9 mph 8 mph 40% 0 in 816 W/m2
12:34 76.5 °F 50.4 °F 30.1 in NE 2.9 mph 6 mph 40% 0 in 814 W/m2
12:39 76.6 °F 51.3 °F 30.1 in East 0.9 mph 5 mph 41% 0 in 817 W/m2
12:44 77.2 °F 50.4 °F 30.1 in ESE 4.9 mph 8 mph 39% 0 in 828 W/m2
12:49 77.5 °F 50 °F 30.1 in ENE 8.9 mph 9 mph 38% 0 in 826 W/m2
12:54 77.5 °F 50 °F 30.1 in NE 0.9 mph 3 mph 38% 0 in 831 W/m2
12:59 77.5 °F 49.3 °F 30.1 in ENE 4.9 mph 8 mph 37% 0 in 833 W/m2
13:04 77.5 °F 49.3 °F 30.1 in NNW 2.9 mph 7 mph 37% 0 in 833 W/m2
13:09 77.5 °F 49.3 °F 30.1 in ESE 2 mph 10 mph 37% 0 in 837 W/m2
13:14 77.9 °F 49.5 °F 30.1 in North 4 mph 5 mph 37% 0 in 842 W/m2
13:19 78.1 °F 49.6 °F 30.1 in ESE 0.9 mph 5 mph 37% 0 in 844 W/m2
13:24 78.3 °F 49.8 °F 30.1 in ENE 8.9 mph 9 mph 37% 0 in 844 W/m2
13:29 78.4 °F 51.4 °F 30.1 in East 2 mph 4 mph 39% 0 in 849 W/m2
13:34 78.6 °F 50.9 °F 30.1 in North 2.9 mph 5 mph 38% 0 in 847 W/m2
13:39 79 °F 51.3 °F 30.1 in SE 2.9 mph 4 mph 38% 0 in 849 W/m2
13:44 79.3 °F 50 °F 30.1 in ENE 2.9 mph 7 mph 36% 0 in 844 W/m2
13:49 79.7 °F 49.6 °F 30.1 in NNE 0.9 mph 4 mph 35% 0 in 851 W/m2
13:54 79.3 °F 50 °F 30.1 in ENE 2.9 mph 11 mph 36% 0 in 851 W/m2
13:59 79.5 °F 50.2 °F 30.1 in North 0.9 mph 9 mph 36% 0 in 847 W/m2
14:04 79.9 °F 49.8 °F 30.1 in East 2.9 mph 6 mph 35% 0 in 826 W/m2
14:09 79.3 °F 48.6 °F 30.1 in WNW 0.9 mph 6 mph 34% 0 in 772 W/m2
14:14 79.2 °F 48.4 °F 30.1 in East 2 mph 6 mph 34% 0 in 865 W/m2
14:19 79 °F 49.8 °F 30.1 in ENE 2 mph 9 mph 36% 0 in 810 W/m2
14:24 79 °F 48.9 °F 30.1 in ESE 2 mph 11 mph 35% 0 in 809 W/m2
14:29 79 °F 50.5 °F 30.1 in SE 2 mph 3 mph 37% 0 in 770 W/m2
14:34 79.7 °F 50.4 °F 30.1 in ESE 4 mph 11 mph 36% 0 in 786 W/m2
14:39 79.9 °F 49.8 °F 30.1 in NNW 2 mph 6 mph 35% 0 in 816 W/m2
14:44 79.9 °F 49.8 °F 30.1 in East 0.9 mph 10 mph 35% 0 in 814 W/m2
14:49 79.9 °F 50.5 °F 30.1 in ESE 2.9 mph 3 mph 36% 0 in 831 W/m2
14:54 80.1 °F 50 °F 30.1 in ENE 6 mph 9 mph 35% 0 in 837 W/m2
14:59 80.2 °F 50.2 °F 30.1 in NE 6.9 mph 9 mph 35% 0 in 830 W/m2
15:04 80.1 °F 50.7 °F 30.1 in West 4 mph 5 mph 36% 0 in 830 W/m2
15:09 80.1 °F 50.7 °F 30.1 in East 6.9 mph 10 mph 36% 0 in 821 W/m2
15:14 80.2 °F 50.2 °F 30.1 in NNW 2 mph 4 mph 35% 0 in 810 W/m2
15:19 80.8 °F 50.5 °F 30.1 in NNW 0.9 mph 10 mph 35% 0 in 814 W/m2
15:24 80.8 °F 50.5 °F 30.1 in NNW 2.9 mph 10 mph 35% 0 in 807 W/m2
15:29 81.1 °F 50.2 °F 30.1 in NNW 0.9 mph 6 mph 34% 0 in 796 W/m2
15:34 81.5 °F 50.4 °F 30.1 in East 2.9 mph 6 mph 34% 0 in 795 W/m2
15:39 81.7 °F 50.5 °F 30.1 in SW 2.9 mph 4 mph 34% 0 in 786 W/m2
15:44 81.9 °F 50 °F 30.1 in Calm   4 mph 33% 0 in 779 W/m2
15:49 81.7 °F 49.8 °F 30.1 in WNW 2 mph 3 mph 33% 0 in 773 W/m2
15:54 81.3 °F 49.5 °F 30.1 in ENE 4 mph 8 mph 33% 0 in 758 W/m2
15:59 81.7 °F 49.8 °F 30.1 in NE 2 mph 5 mph 33% 0 in 742 W/m2
16:04 81.9 °F 50.7 °F 30.1 in East 2 mph 8 mph 34% 0 in 737 W/m2
16:09 81.9 °F 50.7 °F 30.1 in WSW 2 mph 4 mph 34% 0 in 728 W/m2
16:14 82 °F 50.2 °F 30.1 in WNW 2.9 mph 8 mph 33% 0 in 726 W/m2
16:19 82 °F 49.3 °F 30.1 in NE 2 mph 3 mph 32% 0 in 715 W/m2
16:24 82.2 °F 51.1 °F 30.1 in South 2.9 mph 4 mph 34% 0 in 703 W/m2
16:29 82.2 °F 49.5 °F 30.1 in NNW 4 mph 9 mph 32% 0 in 694 W/m2
16:34 82.2 °F 49.5 °F 30.1 in NE 0.9 mph 3 mph 32% 0 in 682 W/m2
16:39 82.8 °F 49.8 °F 30.1 in NNE 2.9 mph 9 mph 32% 0 in 671 W/m2
16:44 82.9 °F 49.3 °F 30.1 in ENE 2.9 mph 6 mph 31% 0 in 670 W/m2
16:49 82.9 °F 50 °F 30.1 in ESE 2.9 mph 9 mph 32% 0 in 661 W/m2
16:54 82.8 °F 49.8 °F 30.1 in North 2 mph 8 mph 32% 0 in 650 W/m2
16:59 82.8 °F 49.1 °F 30.1 in NW 2.9 mph 6 mph 31% 0 in 638 W/m2
17:04 82.2 °F 49.5 °F 30.1 in West 4 mph 9 mph 32% 0 in 612 W/m2
17:09 82.2 °F 49.5 °F 30.1 in ENE 4 mph 6 mph 32% 0 in 610 W/m2
17:14 82.2 °F 49.5 °F 30.1 in SE 2 mph 8 mph 32% 0 in 561 W/m2
17:19 82.6 °F 49.8 °F 30.1 in WSW 4.9 mph 8 mph 32% 0 in 589 W/m2
17:24 82.6 °F 49.8 °F 30.1 in SE 4 mph 10 mph 32% 0 in 570 W/m2
17:29 82.8 °F 50.7 °F 30.1 in ENE 2 mph 2 mph 33% 0 in 561 W/m2
17:34 83.1 °F 50.2 °F 30.1 in East 2.9 mph 10 mph 32% 0 in 545 W/m2
17:39 82.8 °F 49.8 °F 30.1 in Calm   5 mph 32% 0 in 533 W/m2
17:44 82.9 °F 49.3 °F 30.1 in North 4.9 mph 5 mph 31% 0 in 517 W/m2
17:49 82.9 °F 49.3 °F 30.1 in NNW 4.9 mph 6 mph 31% 0 in 504 W/m2
17:54 82.9 °F 48.4 °F 30.1 in NNW 2 mph 6 mph 30% 0 in 490 W/m2
17:59 82.9 °F 49.3 °F 30.1 in WSW 11 mph 11 mph 31% 0 in 482 W/m2
18:04 82.6 °F 48.9 °F 30.1 in NNW 4 mph 9 mph 31% 0 in 471 W/m2
18:09 82.6 °F 48.9 °F 30.1 in ESE 2 mph 4 mph 31% 0 in 450 W/m2
18:14 82.9 °F 49.3 °F 30.1 in ESE 6.9 mph 7 mph 31% 0 in 438 W/m2
18:19 82.9 °F 48.4 °F 30.1 in West 6 mph 6 mph 30% 0 in 422 W/m2
18:24 82.8 °F 48.2 °F 30.1 in ESE 0.9 mph 7 mph 30% 0 in 406 W/m2
18:29 82.8 °F 48.2 °F 30.1 in NW 2.9 mph 6 mph 30% 0 in 394 W/m2
18:34 82.9 °F 48.4 °F 30.1 in West 2.9 mph 5 mph 30% 0 in 378 W/m2
18:39 83.1 °F 49.3 °F 30.1 in ENE 4.9 mph 6 mph 31% 0 in 364 W/m2
18:44 82.8 °F 49.8 °F 30.1 in NNW 0.9 mph 7 mph 32% 0 in 353 W/m2
18:49 82.2 °F 49.5 °F 30.1 in WNW 2 mph 4 mph 32% 0 in 334 W/m2
18:54 82.6 °F 48.9 °F 30.1 in South 0.9 mph 4 mph 31% 0 in 315 W/m2
18:59 82.4 °F 47.8 °F 30.1 in ENE 6 mph 9 mph 30% 0 in 287 W/m2
19:04 82.2 °F 48.6 °F 30.1 in NNW 4.9 mph 8 mph 31% 0 in 176 W/m2
19:09 82.6 °F 48 °F 30.1 in NNW 0.9 mph 9 mph 30% 0 in 60 W/m2
19:14 82.6 °F 48 °F 30.1 in ESE 2 mph 7 mph 30% 0 in 46 W/m2
19:19 82.4 °F 48.7 °F 30.1 in ESE 2 mph 8 mph 31% 0 in 44 W/m2
19:24 82.2 °F 48.6 °F 30.1 in ENE 4.9 mph 10 mph 31% 0 in 42 W/m2
19:29 81.9 °F 48.2 °F 30.1 in NNW 4 mph 9 mph 31% 0 in 39 W/m2
19:34 81.7 °F 47.3 °F 30.1 in NNW 2 mph 10 mph 30% 0 in 37 W/m2
19:39 81.5 °F 48 °F 30.1 in WNW 2 mph 4 mph 31% 0 in 35 W/m2
19:44 81 °F 47.5 °F 30.1 in NNE 4 mph 6 mph 31% 0 in 33 W/m2
19:49 80.8 °F 47.3 °F 30.1 in NNE 2 mph 5 mph 31% 0 in 32 W/m2
19:54 80.6 °F 48 °F 30.1 in WNW 0.9 mph 4 mph 32% 0 in 30 W/m2
19:59 80.4 °F 47.8 °F 30.1 in North 2 mph 4 mph 32% 0 in 30 W/m2
20:04 80.4 °F 47.8 °F 30.1 in ENE 4 mph 4 mph 32% 0 in 30 W/m2
20:09 80.1 °F 47.5 °F 30.1 in North 4 mph 4 mph 32% 0 in 26 W/m2
20:14 79.9 °F 47.3 °F 30.1 in ESE 2 mph 4 mph 32% 0 in 25 W/m2
20:19 79.3 °F 47.7 °F 30.1 in Calm   2 mph 33% 0 in 23 W/m2
20:24 79 °F 47.5 °F 30.1 in East 4 mph 5 mph 33% 0 in 21 W/m2
20:29 78.6 °F 47.1 °F 30.1 in Calm   2 mph 33% 0 in 19 W/m2
20:34 78.3 °F 46.8 °F 30.1 in North 0.9 mph 3 mph 33% 0 in 16 W/m2
20:39 77.9 °F 47.3 °F 30.1 in North 2 mph 3 mph 34% 0 in 16 W/m2
20:44 77.5 °F 46.9 °F 30.1 in NE 2 mph 3 mph 34% 0 in 12 W/m2
20:49 77.4 °F 46.8 °F 30.1 in Calm   2 mph 34% 0 in 11 W/m2
20:54 77 °F 46.4 °F 30.1 in ENE 0.9 mph 3 mph 34% 0 in 9 W/m2
20:59 76.6 °F 46.9 °F 30.1 in North 2 mph 5 mph 35% 0 in 5 W/m2
21:04 76.5 °F 46.8 °F 30.1 in Calm   2 mph 35% 0 in 0 W/m2
21:09 76.3 °F 47.3 °F 30.1 in Calm   5 mph 36% 0 in 0 W/m2
21:14 75.9 °F 47.1 °F 30.1 in Calm   2 mph 36% 0 in 0 W/m2
21:19 75.6 °F 47.5 °F 30.1 in WNW 0.9 mph 2 mph 37% 0 in 0 W/m2
21:25 75 °F 46.9 °F 30.1 in West 0.9 mph 2 mph 37% 0 in 0 W/m2
21:30 74.5 °F 47.8 °F 30.1 in West 0.9 mph 1 mph 39% 0 in 0 W/m2
21:35 73.9 °F 48 °F 30.1 in West 0.9 mph 2 mph 40% 0 in 0 W/m2
21:40 73.2 °F 48 °F 30.1 in West 0.9 mph 2 mph 41% 0 in 0 W/m2
21:45 72.9 °F 47.8 °F 30.1 in Calm   2 mph 41% 0 in 0 W/m2
21:50 72.7 °F 47.7 °F 30.1 in Calm   2 mph 41% 0 in 0 W/m2
21:55 72.3 °F 48 °F 30.1 in WNW 0.9 mph 1 mph 42% 0 in 0 W/m2
22:00 72 °F 47.7 °F 30.1 in Calm   2 mph 42% 0 in 0 W/m2
22:05 71.6 °F 47.8 °F 30.1 in Calm   2 mph 43% 0 in 0 W/m2
22:10 71.4 °F 47.1 °F 30.1 in NW 0.9 mph 3 mph 42% 0 in 0 W/m2
22:15 71.4 °F 46.6 °F 30.1 in WNW 0.9 mph 4 mph 41% 0 in 0 W/m2
22:20 71.4 °F 46.6 °F 30.1 in Calm   2 mph 41% 0 in 0 W/m2
22:25 71.4 °F 46.6 °F 30.1 in Calm   2 mph 41% 0 in 0 W/m2
22:30 71.4 °F 46.6 °F 30.1 in Calm   3 mph 41% 0 in 0 W/m2
22:35 71.2 °F 46.9 °F 30.1 in WNW 0.9 mph 2 mph 42% 0 in 0 W/m2
22:40 71.1 °F 46.8 °F 30.1 in NW 0.9 mph 2 mph 42% 0 in 0 W/m2
22:45 70.7 °F 47.1 °F 30.1 in Calm   2 mph 43% 0 in 0 W/m2
22:50 70.3 °F 46.8 °F 30.1 in South 2 mph 2 mph 43% 0 in 0 W/m2
22:55 70.3 °F 46.8 °F 30.1 in Calm   2 mph 43% 0 in 0 W/m2
23:00 70.2 °F 46.6 °F 30.1 in Calm   3 mph 43% 0 in 0 W/m2
23:05 69.8 °F 47.5 °F 30.1 in Calm   3 mph 45% 0 in 0 W/m2
23:10 69.4 °F 47.8 °F 30.1 in WSW 0.9 mph 1 mph 46% 0 in 0 W/m2
23:15 69.1 °F 47.5 °F 30.1 in West 0.9 mph 2 mph 46% 0 in 0 W/m2
23:20 68.5 °F 46.9 °F 30.1 in Calm   2 mph 46% 0 in 0 W/m2
23:25 68.4 °F 46.8 °F 30.1 in West 0.9 mph 1 mph 46% 0 in 0 W/m2
23:30 68.2 °F 47.1 °F 30.1 in West 0.9 mph 2 mph 47% 0 in 0 W/m2
23:35 68 °F 45.9 °F 30.1 in WSW 2 mph 3 mph 45% 0 in 0 W/m2
23:40 68.4 °F 46.2 °F 30.1 in West 0.9 mph 6 mph 45% 0 in 0 W/m2
23:45 68.5 °F 45.7 °F 30.1 in Calm   4 mph 44% 0 in 0 W/m2
23:50 68.5 °F 45.7 °F 30.1 in West 2 mph 3 mph 44% 0 in 0 W/m2
23:55 68.7 °F 45.3 °F 30.1 in WNW 2.9 mph 4 mph 43% 0 in 0 W/m2
Juneau County Weather
Compliments of Weather Underground - 4 mb